KFCS/FCS METAR and TAF weather

Enter ICAO airport designator
Station Type Date Time Source
KFCS METAR 2022/06/27 18:58 UTC NOAA

KFCS 271858Z AUTO 18005KT 10SM CLR 21/12 A3037 RMK AO2 SLP247 T02120115 $


Station Type Date Time Source
KFCS Decoded METAR 2022/06/27 18:58 UTC NOAA

Fort Carson, CO, United States (KFCS) 38-42N 104-46W 1789M
Jun 27, 2022 - 02:58 PM EDT / 2022.06.27 1858 UTC
Wind: from the S (180 degrees) at 6 MPH (5 KT):0
Visibility: 10 mile(s):0
Sky conditions: clear
Temperature: 70.2 F (21.2 C)
Dew Point: 52.7 F (11.5 C)
Relative Humidity: 53%
Pressure (altimeter): 30.37 in. Hg (1028 hPa)
ob: KFCS 271858Z AUTO 18005KT 10SM CLR 21/12 A3037 RMK AO2 SLP247 T02120115
cycle: 19

Station Type Date Time Source
KFCS TAF 2022/06/27 15:12 UTC NOAA

TAF TAF
AMD KFCS 271505Z 2715/2819 16006KT 9999 BKN008 OVC012 QNH3043INS
BECMG 2716/2717 14009KT 9999 SCT012 BKN030 QNH3041INS
BECMG 2718/2719 VRB12G20KT 9999 VCTS BKN060 QNH3034INS
TEMPO 2802/2806 VRB25G35KT 8000 TSRA OVC060
BECMG 2806/2807 33007KT 9999 NSW SCT080 BKN120 QNH3037INS TX27/2720Z TN12/2723Z

Example: see airport list